sensor_id;sensor_type;location;lat;lon;timestamp;temperature;humidity
29663;DHT22;16578;53.266;7.920;2022-09-09T00:02:13;19.50;75.40
29663;DHT22;16578;53.266;7.920;2022-09-09T00:05:28;19.50;75.40
29663;DHT22;16578;53.266;7.920;2022-09-09T00:07:47;19.50;75.50
29663;DHT22;16578;53.266;7.920;2022-09-09T00:10:20;19.50;75.40
29663;DHT22;16578;53.266;7.920;2022-09-09T00:15:54;19.40;75.50
29663;DHT22;16578;53.266;7.920;2022-09-09T00:18:29;19.40;75.40
29663;DHT22;16578;53.266;7.920;2022-09-09T00:21:06;19.40;75.30
29663;DHT22;16578;53.266;7.920;2022-09-09T00:23:37;19.40;75.20
29663;DHT22;16578;53.266;7.920;2022-09-09T00:31:38;19.30;75.30
29663;DHT22;16578;53.266;7.920;2022-09-09T00:36:39;19.30;75.20
29663;DHT22;16578;53.266;7.920;2022-09-09T00:39:10;19.30;75.20
29663;DHT22;16578;53.266;7.920;2022-09-09T00:44:27;19.20;75.10
29663;DHT22;16578;53.266;7.920;2022-09-09T00:49:39;19.20;75.10
29663;DHT22;16578;53.266;7.920;2022-09-09T00:52:25;19.20;75.10
29663;DHT22;16578;53.266;7.920;2022-09-09T00:57:36;19.10;75.10
29663;DHT22;16578;53.266;7.920;2022-09-09T01:06:33;19.10;75.40
29663;DHT22;16578;53.266;7.920;2022-09-09T01:11:22;19.00;75.50
29663;DHT22;16578;53.266;7.920;2022-09-09T01:16:57;19.00;75.60
29663;DHT22;16578;53.266;7.920;2022-09-09T01:27:48;19.00;75.80
29663;DHT22;16578;53.266;7.920;2022-09-09T01:30:15;19.00;75.80
29663;DHT22;16578;53.266;7.920;2022-09-09T01:32:50;18.90;76.10
29663;DHT22;16578;53.266;7.920;2022-09-09T01:37:57;19.00;75.80
29663;DHT22;16578;53.266;7.920;2022-09-09T01:40:24;18.90;75.80
29663;DHT22;16578;53.266;7.920;2022-09-09T01:42:50;18.90;75.70
29663;DHT22;16578;53.266;7.920;2022-09-09T01:45:16;18.90;75.70
29663;DHT22;16578;53.266;7.920;2022-09-09T01:47:42;18.90;75.70
29663;DHT22;16578;53.266;7.920;2022-09-09T01:50:10;18.90;75.70
29663;DHT22;16578;53.266;7.920;2022-09-09T01:52:38;18.90;75.60
29663;DHT22;16578;53.266;7.920;2022-09-09T01:55:05;18.90;75.60
29663;DHT22;16578;53.266;7.920;2022-09-09T01:57:53;18.90;75.60
29663;DHT22;16578;53.266;7.920;2022-09-09T02:00:21;18.90;75.60
29663;DHT22;16578;53.266;7.920;2022-09-09T02:06:05;18.90;75.50
29663;DHT22;16578;53.266;7.920;2022-09-09T02:08:43;18.90;75.50
29663;DHT22;16578;53.266;7.920;2022-09-09T02:11:23;18.90;75.60
29663;DHT22;16578;53.266;7.920;2022-09-09T02:13:52;18.90;75.70
29663;DHT22;16578;53.266;7.920;2022-09-09T02:16:43;18.80;75.60
29663;DHT22;16578;53.266;7.920;2022-09-09T02:19:29;18.90;75.50
29663;DHT22;16578;53.266;7.920;2022-09-09T02:21:59;18.80;75.40
29663;DHT22;16578;53.266;7.920;2022-09-09T02:24:26;18.80;75.40
29663;DHT22;16578;53.266;7.920;2022-09-09T02:26:53;18.70;75.60
29663;DHT22;16578;53.266;7.920;2022-09-09T02:29:28;18.80;75.40
29663;DHT22;16578;53.266;7.920;2022-09-09T02:31:58;18.80;75.30
29663;DHT22;16578;53.266;7.920;2022-09-09T02:34:25;18.70;75.30
29663;DHT22;16578;53.266;7.920;2022-09-09T02:36:54;18.70;75.40
29663;DHT22;16578;53.266;7.920;2022-09-09T02:39:21;18.70;75.40
29663;DHT22;16578;53.266;7.920;2022-09-09T02:41:46;18.60;75.40
29663;DHT22;16578;53.266;7.920;2022-09-09T02:44:14;18.70;75.40
29663;DHT22;16578;53.266;7.920;2022-09-09T02:46:52;18.70;75.40
29663;DHT22;16578;53.266;7.920;2022-09-09T02:57:52;18.60;75.50
29663;DHT22;16578;53.266;7.920;2022-09-09T03:00:28;18.60;75.60
29663;DHT22;16578;53.266;7.920;2022-09-09T03:02:54;18.60;75.50
29663;DHT22;16578;53.266;7.920;2022-09-09T03:05:20;18.60;75.50
29663;DHT22;16578;53.266;7.920;2022-09-09T03:07:46;18.60;75.70
29663;DHT22;16578;53.266;7.920;2022-09-09T03:10:12;18.60;75.70
29663;DHT22;16578;53.266;7.920;2022-09-09T03:12:37;18.50;75.70
29663;DHT22;16578;53.266;7.920;2022-09-09T03:15:04;18.50;75.70
29663;DHT22;16578;53.266;7.920;2022-09-09T03:17:30;18.50;75.80
29663;DHT22;16578;53.266;7.920;2022-09-09T03:19:56;18.50;75.80
29663;DHT22;16578;53.266;7.920;2022-09-09T03:22:23;18.50;75.90
29663;DHT22;16578;53.266;7.920;2022-09-09T03:24:48;18.50;75.90
29663;DHT22;16578;53.266;7.920;2022-09-09T03:27:14;18.50;75.90
29663;DHT22;16578;53.266;7.920;2022-09-09T03:29:40;18.50;76.00
29663;DHT22;16578;53.266;7.920;2022-09-09T03:32:05;18.60;76.10
29663;DHT22;16578;53.266;7.920;2022-09-09T03:34:31;18.60;76.10
29663;DHT22;16578;53.266;7.920;2022-09-09T03:36:57;18.60;77.00
29663;DHT22;16578;53.266;7.920;2022-09-09T03:39:22;18.60;76.10
29663;DHT22;16578;53.266;7.920;2022-09-09T03:41:48;18.60;76.20
29663;DHT22;16578;53.266;7.920;2022-09-09T03:44:14;18.60;76.20
29663;DHT22;16578;53.266;7.920;2022-09-09T03:46:40;18.60;76.10
29663;DHT22;16578;53.266;7.920;2022-09-09T03:49:05;18.60;76.10
29663;DHT22;16578;53.266;7.920;2022-09-09T03:51:31;18.60;76.10
29663;DHT22;16578;53.266;7.920;2022-09-09T03:53:57;18.60;76.10
29663;DHT22;16578;53.266;7.920;2022-09-09T03:56:24;18.60;76.20
29663;DHT22;16578;53.266;7.920;2022-09-09T03:58:49;18.60;76.10
29663;DHT22;16578;53.266;7.920;2022-09-09T04:01:15;18.60;76.10
29663;DHT22;16578;53.266;7.920;2022-09-09T04:03:43;18.60;76.00
29663;DHT22;16578;53.266;7.920;2022-09-09T04:06:11;18.60;75.90
29663;DHT22;16578;53.266;7.920;2022-09-09T04:08:39;18.60;75.80
29663;DHT22;16578;53.266;7.920;2022-09-09T04:11:05;18.60;75.70
29663;DHT22;16578;53.266;7.920;2022-09-09T04:13:32;18.60;75.70
29663;DHT22;16578;53.266;7.920;2022-09-09T04:16:00;18.60;75.70
29663;DHT22;16578;53.266;7.920;2022-09-09T04:18:26;18.60;75.70
29663;DHT22;16578;53.266;7.920;2022-09-09T04:20:54;18.60;75.60
29663;DHT22;16578;53.266;7.920;2022-09-09T04:23:21;18.60;75.50
29663;DHT22;16578;53.266;7.920;2022-09-09T04:25:48;18.50;75.40
29663;DHT22;16578;53.266;7.920;2022-09-09T04:28:14;18.50;75.30
29663;DHT22;16578;53.266;7.920;2022-09-09T04:30:41;18.50;75.30
29663;DHT22;16578;53.266;7.920;2022-09-09T04:33:08;18.50;75.30
29663;DHT22;16578;53.266;7.920;2022-09-09T04:35:34;18.50;75.20
29663;DHT22;16578;53.266;7.920;2022-09-09T04:38:00;18.40;75.30
29663;DHT22;16578;53.266;7.920;2022-09-09T04:40:28;18.40;75.30
29663;DHT22;16578;53.266;7.920;2022-09-09T04:42:55;18.40;75.30
29663;DHT22;16578;53.266;7.920;2022-09-09T04:45:20;18.40;75.40
29663;DHT22;16578;53.266;7.920;2022-09-09T04:47:46;18.40;75.40
29663;DHT22;16578;53.266;7.920;2022-09-09T04:50:11;18.30;75.30
29663;DHT22;16578;53.266;7.920;2022-09-09T04:52:37;18.30;75.30
29663;DHT22;16578;53.266;7.920;2022-09-09T04:55:03;18.30;75.30
29663;DHT22;16578;53.266;7.920;2022-09-09T04:57:29;18.30;75.40
29663;DHT22;16578;53.266;7.920;2022-09-09T04:59:58;18.30;75.40
29663;DHT22;16578;53.266;7.920;2022-09-09T05:02:25;18.30;75.50
29663;DHT22;16578;53.266;7.920;2022-09-09T05:04:51;18.30;75.60
29663;DHT22;16578;53.266;7.920;2022-09-09T05:07:17;18.20;75.60
29663;DHT22;16578;53.266;7.920;2022-09-09T05:09:42;18.20;75.60
29663;DHT22;16578;53.266;7.920;2022-09-09T05:12:08;18.20;75.60
29663;DHT22;16578;53.266;7.920;2022-09-09T05:14:33;18.20;75.70
29663;DHT22;16578;53.266;7.920;2022-09-09T05:17:01;18.20;75.80
29663;DHT22;16578;53.266;7.920;2022-09-09T05:19:27;18.20;75.80
29663;DHT22;16578;53.266;7.920;2022-09-09T05:21:52;18.20;75.80
29663;DHT22;16578;53.266;7.920;2022-09-09T05:24:18;18.20;75.80
29663;DHT22;16578;53.266;7.920;2022-09-09T05:26:43;18.20;75.80
29663;DHT22;16578;53.266;7.920;2022-09-09T05:29:09;18.20;75.90
29663;DHT22;16578;53.266;7.920;2022-09-09T05:31:35;18.20;75.90
29663;DHT22;16578;53.266;7.920;2022-09-09T05:34:00;18.20;75.90
29663;DHT22;16578;53.266;7.920;2022-09-09T05:36:26;18.20;76.00
29663;DHT22;16578;53.266;7.920;2022-09-09T05:38:52;18.20;76.00
29663;DHT22;16578;53.266;7.920;2022-09-09T05:41:19;18.20;76.10
29663;DHT22;16578;53.266;7.920;2022-09-09T05:43:46;18.20;76.10
29663;DHT22;16578;53.266;7.920;2022-09-09T05:46:23;18.20;76.20
29663;DHT22;16578;53.266;7.920;2022-09-09T05:48:50;18.20;76.30
29663;DHT22;16578;53.266;7.920;2022-09-09T05:51:22;18.20;76.30
29663;DHT22;16578;53.266;7.920;2022-09-09T05:53:49;18.20;76.40
29663;DHT22;16578;53.266;7.920;2022-09-09T05:56:23;18.20;76.40
29663;DHT22;16578;53.266;7.920;2022-09-09T05:58:51;18.30;76.50
29663;DHT22;16578;53.266;7.920;2022-09-09T06:01:26;18.20;76.50
29663;DHT22;16578;53.266;7.920;2022-09-09T06:03:52;18.30;76.50
29663;DHT22;16578;53.266;7.920;2022-09-09T06:06:23;18.30;76.50
29663;DHT22;16578;53.266;7.920;2022-09-09T06:08:52;18.30;76.40
29663;DHT22;16578;53.266;7.920;2022-09-09T06:11:20;18.30;76.40
29663;DHT22;16578;53.266;7.920;2022-09-09T06:13:47;18.30;76.40
29663;DHT22;16578;53.266;7.920;2022-09-09T06:16:15;18.30;76.40
29663;DHT22;16578;53.266;7.920;2022-09-09T06:18:41;18.40;76.40
29663;DHT22;16578;53.266;7.920;2022-09-09T06:21:13;18.30;76.40
29663;DHT22;16578;53.266;7.920;2022-09-09T06:23:40;18.30;76.50
29663;DHT22;16578;53.266;7.920;2022-09-09T06:26:18;18.30;76.40
29663;DHT22;16578;53.266;7.920;2022-09-09T06:28:48;18.30;76.40
29663;DHT22;16578;53.266;7.920;2022-09-09T06:31:17;18.30;76.40
29663;DHT22;16578;53.266;7.920;2022-09-09T06:33:43;18.30;76.50
29663;DHT22;16578;53.266;7.920;2022-09-09T06:36:24;18.30;76.50
29663;DHT22;16578;53.266;7.920;2022-09-09T06:38:50;18.30;76.50
29663;DHT22;16578;53.266;7.920;2022-09-09T06:41:18;18.30;76.70
29663;DHT22;16578;53.266;7.920;2022-09-09T06:43:45;18.30;76.80
29663;DHT22;16578;53.266;7.920;2022-09-09T06:46:21;18.40;76.90
29663;DHT22;16578;53.266;7.920;2022-09-09T06:48:47;18.40;77.00
29663;DHT22;16578;53.266;7.920;2022-09-09T06:51:20;18.40;76.90
29663;DHT22;16578;53.266;7.920;2022-09-09T06:53:50;18.40;76.90
29663;DHT22;16578;53.266;7.920;2022-09-09T06:58:42;18.50;77.00
29663;DHT22;16578;53.266;7.920;2022-09-09T07:01:13;18.50;77.00
29663;DHT22;16578;53.266;7.920;2022-09-09T07:03:40;18.50;77.10
29663;DHT22;16578;53.266;7.920;2022-09-09T07:06:06;18.60;77.10
29663;DHT22;16578;53.266;7.920;2022-09-09T07:08:33;18.60;77.20
29663;DHT22;16578;53.266;7.920;2022-09-09T07:11:03;18.60;77.30
29663;DHT22;16578;53.266;7.920;2022-09-09T07:13:30;18.70;77.40
29663;DHT22;16578;53.266;7.920;2022-09-09T07:16:06;18.70;77.40
29663;DHT22;16578;53.266;7.920;2022-09-09T07:18:32;18.70;78.20
29663;DHT22;16578;53.266;7.920;2022-09-09T07:20:58;18.70;77.30
29663;DHT22;16578;53.266;7.920;2022-09-09T07:23:24;18.80;77.30
29663;DHT22;16578;53.266;7.920;2022-09-09T07:25:50;18.80;77.30
29663;DHT22;16578;53.266;7.920;2022-09-09T07:28:17;18.80;77.30
29663;DHT22;16578;53.266;7.920;2022-09-09T07:30:42;18.80;77.20
29663;DHT22;16578;53.266;7.920;2022-09-09T07:33:08;18.80;77.10
29663;DHT22;16578;53.266;7.920;2022-09-09T07:35:35;18.90;77.10
29663;DHT22;16578;53.266;7.920;2022-09-09T07:38:02;18.90;77.20
29663;DHT22;16578;53.266;7.920;2022-09-09T07:40:30;18.90;77.30
29663;DHT22;16578;53.266;7.920;2022-09-09T07:42:55;18.90;77.30
29663;DHT22;16578;53.266;7.920;2022-09-09T07:45:21;18.90;77.40
29663;DHT22;16578;53.266;7.920;2022-09-09T07:47:47;19.00;77.50
29663;DHT22;16578;53.266;7.920;2022-09-09T07:50:14;19.00;77.40
29663;DHT22;16578;53.266;7.920;2022-09-09T07:52:40;19.10;77.50
29663;DHT22;16578;53.266;7.920;2022-09-09T07:55:06;19.10;77.50
29663;DHT22;16578;53.266;7.920;2022-09-09T07:57:32;19.10;77.60
29663;DHT22;16578;53.266;7.920;2022-09-09T07:59:57;19.20;77.70
29663;DHT22;16578;53.266;7.920;2022-09-09T08:02:24;19.20;78.00
29663;DHT22;16578;53.266;7.920;2022-09-09T08:04:50;19.30;78.30
29663;DHT22;16578;53.266;7.920;2022-09-09T08:07:17;19.40;79.50
29663;DHT22;16578;53.266;7.920;2022-09-09T08:09:42;19.40;78.70
29663;DHT22;16578;53.266;7.920;2022-09-09T08:12:09;19.50;78.80
29663;DHT22;16578;53.266;7.920;2022-09-09T08:14:38;19.60;78.80
29663;DHT22;16578;53.266;7.920;2022-09-09T08:17:05;19.70;78.80
29663;DHT22;16578;53.266;7.920;2022-09-09T08:19:31;19.80;78.90
29663;DHT22;16578;53.266;7.920;2022-09-09T08:21:59;19.90;78.90
29663;DHT22;16578;53.266;7.920;2022-09-09T08:24:27;20.00;78.60
29663;DHT22;16578;53.266;7.920;2022-09-09T08:26:52;20.00;78.40
29663;DHT22;16578;53.266;7.920;2022-09-09T08:29:19;20.10;78.40
29663;DHT22;16578;53.266;7.920;2022-09-09T08:31:56;20.20;78.30
29663;DHT22;16578;53.266;7.920;2022-09-09T08:34:23;20.30;78.00
29663;DHT22;16578;53.266;7.920;2022-09-09T08:36:51;20.30;77.80
29663;DHT22;16578;53.266;7.920;2022-09-09T08:39:19;20.30;77.80
29663;DHT22;16578;53.266;7.920;2022-09-09T08:44:24;20.40;77.50
29663;DHT22;16578;53.266;7.920;2022-09-09T08:50:00;20.60;77.30
29663;DHT22;16578;53.266;7.920;2022-09-09T08:52:28;20.60;77.20
29663;DHT22;16578;53.266;7.920;2022-09-09T08:57:51;20.70;77.60
29663;DHT22;16578;53.266;7.920;2022-09-09T09:00:18;20.70;77.20
29663;DHT22;16578;53.266;7.920;2022-09-09T09:03:09;20.80;77.00
29663;DHT22;16578;53.266;7.920;2022-09-09T09:06:01;20.90;77.00
29663;DHT22;16578;53.266;7.920;2022-09-09T09:11:19;20.90;76.60
29663;DHT22;16578;53.266;7.920;2022-09-09T09:13:46;20.90;76.40
29663;DHT22;16578;53.266;7.920;2022-09-09T09:18:58;21.00;75.90
29663;DHT22;16578;53.266;7.920;2022-09-09T09:21:45;21.00;76.10
29663;DHT22;16578;53.266;7.920;2022-09-09T09:24:29;21.10;76.40
29663;DHT22;16578;53.266;7.920;2022-09-09T09:27:01;21.10;76.60
29663;DHT22;16578;53.266;7.920;2022-09-09T09:29:32;21.10;76.30
29663;DHT22;16578;53.266;7.920;2022-09-09T09:32:02;21.20;76.50
29663;DHT22;16578;53.266;7.920;2022-09-09T09:34:28;21.20;76.20
29663;DHT22;16578;53.266;7.920;2022-09-09T09:36:56;21.30;75.80
29663;DHT22;16578;53.266;7.920;2022-09-09T09:39:31;21.40;75.10
29663;DHT22;16578;53.266;7.920;2022-09-09T09:42:21;21.50;75.30
29663;DHT22;16578;53.266;7.920;2022-09-09T09:44:47;21.50;75.50
29663;DHT22;16578;53.266;7.920;2022-09-09T09:47:17;21.50;75.50
29663;DHT22;16578;53.266;7.920;2022-09-09T09:52:29;21.70;74.60
29663;DHT22;16578;53.266;7.920;2022-09-09T09:54:56;21.80;74.00
29663;DHT22;16578;53.266;7.920;2022-09-09T09:57:26;21.80;73.80
29663;DHT22;16578;53.266;7.920;2022-09-09T10:00:18;21.90;73.70
29663;DHT22;16578;53.266;7.920;2022-09-09T10:02:46;21.90;72.90
29663;DHT22;16578;53.266;7.920;2022-09-09T10:05:18;22.00;73.20
29663;DHT22;16578;53.266;7.920;2022-09-09T10:07:45;22.10;73.30
29663;DHT22;16578;53.266;7.920;2022-09-09T10:10:24;22.10;73.40
29663;DHT22;16578;53.266;7.920;2022-09-09T10:13:14;22.20;73.70
29663;DHT22;16578;53.266;7.920;2022-09-09T10:20:52;22.30;71.70
29663;DHT22;16578;53.266;7.920;2022-09-09T10:29:51;22.40;71.90
29663;DHT22;16578;53.266;7.920;2022-09-09T10:32:45;22.40;71.60
29663;DHT22;16578;53.266;7.920;2022-09-09T10:35:30;22.50;71.80
29663;DHT22;16578;53.266;7.920;2022-09-09T10:46:09;22.50;70.80
29663;DHT22;16578;53.266;7.920;2022-09-09T10:49:02;22.60;71.20
29663;DHT22;16578;53.266;7.920;2022-09-09T10:56:59;22.60;70.30
29663;DHT22;16578;53.266;7.920;2022-09-09T10:59:31;22.60;70.20
29663;DHT22;16578;53.266;7.920;2022-09-09T11:02:05;22.70;69.80
29663;DHT22;16578;53.266;7.920;2022-09-09T11:05:05;22.70;69.60
29663;DHT22;16578;53.266;7.920;2022-09-09T11:07:50;22.70;68.80
29663;DHT22;16578;53.266;7.920;2022-09-09T11:12:45;22.80;69.40
29663;DHT22;16578;53.266;7.920;2022-09-09T11:15:17;22.80;68.90
29663;DHT22;16578;53.266;7.920;2022-09-09T11:17:50;22.90;68.90
29663;DHT22;16578;53.266;7.920;2022-09-09T11:20:18;22.90;69.10
29663;DHT22;16578;53.266;7.920;2022-09-09T11:37:09;23.00;68.10
29663;DHT22;16578;53.266;7.920;2022-09-09T11:42:26;23.00;67.90
29663;DHT22;16578;53.266;7.920;2022-09-09T11:44:52;22.90;67.60
29663;DHT22;16578;53.266;7.920;2022-09-09T11:47:24;22.90;68.00
29663;DHT22;16578;53.266;7.920;2022-09-09T11:49:52;22.80;68.70
29663;DHT22;16578;53.266;7.920;2022-09-09T11:52:23;22.80;68.20
29663;DHT22;16578;53.266;7.920;2022-09-09T11:54:50;22.90;67.80
29663;DHT22;16578;53.266;7.920;2022-09-09T11:57:32;22.90;67.70
29663;DHT22;16578;53.266;7.920;2022-09-09T11:59:58;22.80;68.30
29663;DHT22;16578;53.266;7.920;2022-09-09T12:02:27;22.80;68.80
29663;DHT22;16578;53.266;7.920;2022-09-09T12:07:36;22.80;69.40
29663;DHT22;16578;53.266;7.920;2022-09-09T12:10:30;22.70;69.60
29663;DHT22;16578;53.266;7.920;2022-09-09T12:13:27;22.70;70.00
29663;DHT22;16578;53.266;7.920;2022-09-09T12:15:58;22.70;70.20
29663;DHT22;16578;53.266;7.920;2022-09-09T12:18:24;22.70;70.40
29663;DHT22;16578;53.266;7.920;2022-09-09T12:21:07;22.70;70.40
29663;DHT22;16578;53.266;7.920;2022-09-09T12:26:32;22.70;70.90
29663;DHT22;16578;53.266;7.920;2022-09-09T12:29:12;22.60;71.20
29663;DHT22;16578;53.266;7.920;2022-09-09T12:34:41;22.50;71.00
29663;DHT22;16578;53.266;7.920;2022-09-09T12:39:57;22.40;71.20
29663;DHT22;16578;53.266;7.920;2022-09-09T12:42:24;22.40;71.50
29663;DHT22;16578;53.266;7.920;2022-09-09T12:44:55;22.30;71.50
29663;DHT22;16578;53.266;7.920;2022-09-09T12:47:26;22.30;71.60
29663;DHT22;16578;53.266;7.920;2022-09-09T12:49:53;22.30;72.00
29663;DHT22;16578;53.266;7.920;2022-09-09T12:52:31;22.30;72.30
29663;DHT22;16578;53.266;7.920;2022-09-09T12:55:01;22.30;72.40
29663;DHT22;16578;53.266;7.920;2022-09-09T12:57:37;22.20;72.10
29663;DHT22;16578;53.266;7.920;2022-09-09T13:00:15;22.20;72.00
29663;DHT22;16578;53.266;7.920;2022-09-09T13:02:50;22.20;72.40
29663;DHT22;16578;53.266;7.920;2022-09-09T13:05:22;22.20;71.90
29663;DHT22;16578;53.266;7.920;2022-09-09T13:07:48;22.20;71.60
29663;DHT22;16578;53.266;7.920;2022-09-09T13:10:20;22.20;71.60
29663;DHT22;16578;53.266;7.920;2022-09-09T13:12:47;22.10;71.50
29663;DHT22;16578;53.266;7.920;2022-09-09T13:15:24;22.10;71.40
29663;DHT22;16578;53.266;7.920;2022-09-09T13:18:03;22.10;71.80
29663;DHT22;16578;53.266;7.920;2022-09-09T13:20:30;22.00;71.80
29663;DHT22;16578;53.266;7.920;2022-09-09T13:22:56;22.00;71.90
29663;DHT22;16578;53.266;7.920;2022-09-09T13:25:27;22.00;71.90
29663;DHT22;16578;53.266;7.920;2022-09-09T13:28:36;21.90;71.90
29663;DHT22;16578;53.266;7.920;2022-09-09T13:30:42;21.90;71.80
29663;DHT22;16578;53.266;7.920;2022-09-09T13:38:16;21.80;72.70
29663;DHT22;16578;53.266;7.920;2022-09-09T13:40:56;21.80;73.00
29663;DHT22;16578;53.266;7.920;2022-09-09T13:43:23;21.90;73.10
29663;DHT22;16578;53.266;7.920;2022-09-09T13:46:02;21.80;73.20
29663;DHT22;16578;53.266;7.920;2022-09-09T13:48:28;21.90;73.70
29663;DHT22;16578;53.266;7.920;2022-09-09T13:51:00;21.90;73.60
29663;DHT22;16578;53.266;7.920;2022-09-09T13:53:26;21.90;73.40
29663;DHT22;16578;53.266;7.920;2022-09-09T13:55:51;21.90;73.30
29663;DHT22;16578;53.266;7.920;2022-09-09T13:58:18;22.00;73.10
29663;DHT22;16578;53.266;7.920;2022-09-09T14:00:45;22.00;73.00
29663;DHT22;16578;53.266;7.920;2022-09-09T14:03:11;22.00;73.00
29663;DHT22;16578;53.266;7.920;2022-09-09T14:05:37;22.00;72.90
29663;DHT22;16578;53.266;7.920;2022-09-09T14:08:04;22.00;72.60
29663;DHT22;16578;53.266;7.920;2022-09-09T14:10:30;22.00;72.40
29663;DHT22;16578;53.266;7.920;2022-09-09T14:12:56;22.00;72.00
29663;DHT22;16578;53.266;7.920;2022-09-09T14:15:22;21.90;71.90
29663;DHT22;16578;53.266;7.920;2022-09-09T14:17:47;21.90;72.10
29663;DHT22;16578;53.266;7.920;2022-09-09T14:20:14;21.90;72.10
29663;DHT22;16578;53.266;7.920;2022-09-09T14:22:42;21.90;72.10
29663;DHT22;16578;53.266;7.920;2022-09-09T14:25:09;21.90;72.20
29663;DHT22;16578;53.266;7.920;2022-09-09T14:27:35;22.00;72.50
29663;DHT22;16578;53.266;7.920;2022-09-09T14:30:00;22.00;72.80
29663;DHT22;16578;53.266;7.920;2022-09-09T14:32:26;22.00;72.70
29663;DHT22;16578;53.266;7.920;2022-09-09T14:34:52;22.00;72.60
29663;DHT22;16578;53.266;7.920;2022-09-09T14:37:18;22.10;72.50
29663;DHT22;16578;53.266;7.920;2022-09-09T14:39:44;22.10;72.40
29663;DHT22;16578;53.266;7.920;2022-09-09T14:42:13;22.10;72.40
29663;DHT22;16578;53.266;7.920;2022-09-09T14:44:39;22.10;72.40
29663;DHT22;16578;53.266;7.920;2022-09-09T14:47:08;22.20;72.20
29663;DHT22;16578;53.266;7.920;2022-09-09T14:49:34;22.20;71.70
29663;DHT22;16578;53.266;7.920;2022-09-09T14:52:00;22.20;71.80
29663;DHT22;16578;53.266;7.920;2022-09-09T14:54:26;22.20;71.70
29663;DHT22;16578;53.266;7.920;2022-09-09T14:56:51;22.20;71.60
29663;DHT22;16578;53.266;7.920;2022-09-09T14:59:17;22.30;71.70
29663;DHT22;16578;53.266;7.920;2022-09-09T15:01:43;22.30;72.00
29663;DHT22;16578;53.266;7.920;2022-09-09T15:04:12;22.30;72.20
29663;DHT22;16578;53.266;7.920;2022-09-09T15:06:40;22.40;72.40
29663;DHT22;16578;53.266;7.920;2022-09-09T15:09:08;22.40;72.40
29663;DHT22;16578;53.266;7.920;2022-09-09T15:11:36;22.40;72.40
29663;DHT22;16578;53.266;7.920;2022-09-09T15:14:06;22.50;72.50
29663;DHT22;16578;53.266;7.920;2022-09-09T15:16:32;22.40;72.20
29663;DHT22;16578;53.266;7.920;2022-09-09T15:19:00;22.50;71.60
29663;DHT22;16578;53.266;7.920;2022-09-09T15:21:28;22.50;71.50
29663;DHT22;16578;53.266;7.920;2022-09-09T15:23:54;22.50;71.30
29663;DHT22;16578;53.266;7.920;2022-09-09T15:26:20;22.50;71.10
29663;DHT22;16578;53.266;7.920;2022-09-09T15:28:47;22.50;70.80
29663;DHT22;16578;53.266;7.920;2022-09-09T15:31:24;22.40;70.40
29663;DHT22;16578;53.266;7.920;2022-09-09T15:33:52;22.50;70.20
29663;DHT22;16578;53.266;7.920;2022-09-09T15:36:26;22.40;70.30
29663;DHT22;16578;53.266;7.920;2022-09-09T15:38:52;22.40;69.90
29663;DHT22;16578;53.266;7.920;2022-09-09T15:41:19;22.40;70.00
29663;DHT22;16578;53.266;7.920;2022-09-09T15:43:50;22.40;70.30
29663;DHT22;16578;53.266;7.920;2022-09-09T15:48:49;22.30;71.70
29663;DHT22;16578;53.266;7.920;2022-09-09T15:51:16;22.30;70.50
29663;DHT22;16578;53.266;7.920;2022-09-09T15:53:41;22.20;70.40
29663;DHT22;16578;53.266;7.920;2022-09-09T15:56:07;22.10;70.50
29663;DHT22;16578;53.266;7.920;2022-09-09T15:58:34;22.00;70.60
29663;DHT22;16578;53.266;7.920;2022-09-09T16:01:10;22.00;70.60
29663;DHT22;16578;53.266;7.920;2022-09-09T16:03:41;21.90;71.00
29663;DHT22;16578;53.266;7.920;2022-09-09T16:06:08;21.80;71.40
29663;DHT22;16578;53.266;7.920;2022-09-09T16:08:39;21.70;71.70
29663;DHT22;16578;53.266;7.920;2022-09-09T16:11:11;21.70;72.30
29663;DHT22;16578;53.266;7.920;2022-09-09T16:13:38;21.60;72.60
29663;DHT22;16578;53.266;7.920;2022-09-09T16:16:08;21.60;72.80
29663;DHT22;16578;53.266;7.920;2022-09-09T16:18:39;21.50;73.00
29663;DHT22;16578;53.266;7.920;2022-09-09T16:21:06;21.50;73.10
29663;DHT22;16578;53.266;7.920;2022-09-09T16:23:35;21.50;73.20
29663;DHT22;16578;53.266;7.920;2022-09-09T16:26:01;21.50;73.30
29663;DHT22;16578;53.266;7.920;2022-09-09T16:28:27;21.40;73.30
29663;DHT22;16578;53.266;7.920;2022-09-09T16:30:53;21.40;73.50
29663;DHT22;16578;53.266;7.920;2022-09-09T16:33:19;21.40;73.70
29663;DHT22;16578;53.266;7.920;2022-09-09T16:35:47;21.30;73.70
29663;DHT22;16578;53.266;7.920;2022-09-09T16:38:14;21.30;73.70
29663;DHT22;16578;53.266;7.920;2022-09-09T16:40:40;21.30;73.70
29663;DHT22;16578;53.266;7.920;2022-09-09T16:43:07;21.20;73.70
29663;DHT22;16578;53.266;7.920;2022-09-09T16:45:33;21.20;73.90
29663;DHT22;16578;53.266;7.920;2022-09-09T16:47:59;21.20;74.10
29663;DHT22;16578;53.266;7.920;2022-09-09T16:50:30;21.20;74.10
29663;DHT22;16578;53.266;7.920;2022-09-09T16:52:55;21.20;74.30
29663;DHT22;16578;53.266;7.920;2022-09-09T16:55:21;21.20;74.50
29663;DHT22;16578;53.266;7.920;2022-09-09T16:57:47;21.20;74.50
29663;DHT22;16578;53.266;7.920;2022-09-09T17:00:16;21.20;74.50
29663;DHT22;16578;53.266;7.920;2022-09-09T17:02:44;21.20;74.40
29663;DHT22;16578;53.266;7.920;2022-09-09T17:05:10;21.20;74.40
29663;DHT22;16578;53.266;7.920;2022-09-09T17:07:37;21.20;74.40
29663;DHT22;16578;53.266;7.920;2022-09-09T17:10:04;21.20;74.60
29663;DHT22;16578;53.266;7.920;2022-09-09T17:12:31;21.20;74.70
29663;DHT22;16578;53.266;7.920;2022-09-09T17:14:57;21.20;74.70
29663;DHT22;16578;53.266;7.920;2022-09-09T17:17:24;21.20;74.60
29663;DHT22;16578;53.266;7.920;2022-09-09T17:19:50;21.20;74.60
29663;DHT22;16578;53.266;7.920;2022-09-09T17:22:15;21.20;75.40
29663;DHT22;16578;53.266;7.920;2022-09-09T17:24:41;21.20;74.50
29663;DHT22;16578;53.266;7.920;2022-09-09T17:27:07;21.20;74.60
29663;DHT22;16578;53.266;7.920;2022-09-09T17:29:32;21.20;74.60
29663;DHT22;16578;53.266;7.920;2022-09-09T17:32:01;21.20;74.60
29663;DHT22;16578;53.266;7.920;2022-09-09T17:34:27;21.10;74.60
29663;DHT22;16578;53.266;7.920;2022-09-09T17:36:53;21.10;74.70
29663;DHT22;16578;53.266;7.920;2022-09-09T17:39:18;21.10;74.70
29663;DHT22;16578;53.266;7.920;2022-09-09T17:41:44;21.10;74.70
29663;DHT22;16578;53.266;7.920;2022-09-09T17:44:11;21.10;74.60
29663;DHT22;16578;53.266;7.920;2022-09-09T17:46:38;21.10;74.60
29663;DHT22;16578;53.266;7.920;2022-09-09T17:49:07;21.00;74.70
29663;DHT22;16578;53.266;7.920;2022-09-09T17:51:35;21.00;74.80
29663;DHT22;16578;53.266;7.920;2022-09-09T17:54:07;21.00;74.90
29663;DHT22;16578;53.266;7.920;2022-09-09T17:56:36;21.00;75.00
29663;DHT22;16578;53.266;7.920;2022-09-09T17:59:04;21.10;75.10
29663;DHT22;16578;53.266;7.920;2022-09-09T18:01:33;21.10;75.20